sensor_id;sensor_type;location;lat;lon;timestamp;temperature;humidity
9564;DHT22;4820;50.870;4.702;2022-12-07T00:00:51;6.30;99.90
9564;DHT22;4820;50.870;4.702;2022-12-07T00:03:16;6.30;99.90
9564;DHT22;4820;50.870;4.702;2022-12-07T00:05:42;6.30;99.90
9564;DHT22;4820;50.870;4.702;2022-12-07T00:08:09;6.30;99.90
9564;DHT22;4820;50.870;4.702;2022-12-07T00:10:34;6.30;99.90
9564;DHT22;4820;50.870;4.702;2022-12-07T00:13:00;6.30;99.90
9564;DHT22;4820;50.870;4.702;2022-12-07T00:15:26;6.30;99.90
9564;DHT22;4820;50.870;4.702;2022-12-07T00:17:51;6.20;99.90
9564;DHT22;4820;50.870;4.702;2022-12-07T00:20:18;6.20;99.90
9564;DHT22;4820;50.870;4.702;2022-12-07T00:22:45;6.20;99.90
9564;DHT22;4820;50.870;4.702;2022-12-07T00:25:12;6.20;99.90
9564;DHT22;4820;50.870;4.702;2022-12-07T00:27:37;6.20;99.90
9564;DHT22;4820;50.870;4.702;2022-12-07T00:30:03;6.20;99.90
9564;DHT22;4820;50.870;4.702;2022-12-07T00:32:29;6.20;99.90
9564;DHT22;4820;50.870;4.702;2022-12-07T00:34:55;6.10;99.90
9564;DHT22;4820;50.870;4.702;2022-12-07T00:37:20;6.10;99.90
9564;DHT22;4820;50.870;4.702;2022-12-07T00:39:46;6.00;99.90
9564;DHT22;4820;50.870;4.702;2022-12-07T00:42:12;6.00;99.90
9564;DHT22;4820;50.870;4.702;2022-12-07T00:44:37;6.00;99.90
9564;DHT22;4820;50.870;4.702;2022-12-07T00:47:03;5.90;99.90
9564;DHT22;4820;50.870;4.702;2022-12-07T00:49:28;5.90;99.90
9564;DHT22;4820;50.870;4.702;2022-12-07T00:51:54;5.90;99.90
9564;DHT22;4820;50.870;4.702;2022-12-07T00:54:20;6.00;99.90
9564;DHT22;4820;50.870;4.702;2022-12-07T00:56:46;6.00;99.90
9564;DHT22;4820;50.870;4.702;2022-12-07T00:59:13;6.00;99.90
9564;DHT22;4820;50.870;4.702;2022-12-07T01:01:40;6.00;99.90
9564;DHT22;4820;50.870;4.702;2022-12-07T01:04:07;6.00;99.90
9564;DHT22;4820;50.870;4.702;2022-12-07T01:06:33;6.00;99.90
9564;DHT22;4820;50.870;4.702;2022-12-07T01:08:59;6.00;99.90
9564;DHT22;4820;50.870;4.702;2022-12-07T01:11:27;6.00;99.90
9564;DHT22;4820;50.870;4.702;2022-12-07T01:13:56;6.00;99.90
9564;DHT22;4820;50.870;4.702;2022-12-07T01:16:23;6.00;99.90
9564;DHT22;4820;50.870;4.702;2022-12-07T01:18:52;6.00;99.90
9564;DHT22;4820;50.870;4.702;2022-12-07T01:21:26;6.00;99.90
9564;DHT22;4820;50.870;4.702;2022-12-07T01:23:53;6.00;99.90
9564;DHT22;4820;50.870;4.702;2022-12-07T01:26:22;5.90;99.90
9564;DHT22;4820;50.870;4.702;2022-12-07T01:28:48;5.90;99.90
9564;DHT22;4820;50.870;4.702;2022-12-07T01:31:17;5.80;99.90
9564;DHT22;4820;50.870;4.702;2022-12-07T01:33:45;5.80;99.90
9564;DHT22;4820;50.870;4.702;2022-12-07T01:36:20;5.80;99.90
9564;DHT22;4820;50.870;4.702;2022-12-07T01:38:48;5.70;99.90
9564;DHT22;4820;50.870;4.702;2022-12-07T01:41:15;5.70;99.90
9564;DHT22;4820;50.870;4.702;2022-12-07T01:46:32;5.70;99.90
9564;DHT22;4820;50.870;4.702;2022-12-07T01:48:58;5.70;99.90
9564;DHT22;4820;50.870;4.702;2022-12-07T01:51:25;5.70;99.90
9564;DHT22;4820;50.870;4.702;2022-12-07T01:53:52;5.70;99.90
9564;DHT22;4820;50.870;4.702;2022-12-07T01:56:20;5.60;99.90
9564;DHT22;4820;50.870;4.702;2022-12-07T01:58:49;5.60;99.90
9564;DHT22;4820;50.870;4.702;2022-12-07T02:01:16;5.70;99.90
9564;DHT22;4820;50.870;4.702;2022-12-07T02:03:44;5.70;99.90
9564;DHT22;4820;50.870;4.702;2022-12-07T02:06:13;5.70;99.90
9564;DHT22;4820;50.870;4.702;2022-12-07T02:08:42;5.80;99.90
9564;DHT22;4820;50.870;4.702;2022-12-07T02:11:08;5.70;99.90
9564;DHT22;4820;50.870;4.702;2022-12-07T02:13:36;5.70;99.90
9564;DHT22;4820;50.870;4.702;2022-12-07T02:16:27;5.70;99.90
9564;DHT22;4820;50.870;4.702;2022-12-07T02:27:47;5.70;99.90
9564;DHT22;4820;50.870;4.702;2022-12-07T02:30:19;5.60;99.90
9564;DHT22;4820;50.870;4.702;2022-12-07T02:33:06;5.60;99.90
9564;DHT22;4820;50.870;4.702;2022-12-07T02:35:51;5.50;99.90
9564;DHT22;4820;50.870;4.702;2022-12-07T02:40:57;5.40;99.90
9564;DHT22;4820;50.870;4.702;2022-12-07T02:43:33;5.40;99.90
9564;DHT22;4820;50.870;4.702;2022-12-07T02:46:09;5.40;99.90
9564;DHT22;4820;50.870;4.702;2022-12-07T02:48:38;5.50;99.90
9564;DHT22;4820;50.870;4.702;2022-12-07T02:51:04;5.40;99.90
9564;DHT22;4820;50.870;4.702;2022-12-07T02:56:07;5.40;99.90
9564;DHT22;4820;50.870;4.702;2022-12-07T03:06:43;5.40;99.90
9564;DHT22;4820;50.870;4.702;2022-12-07T03:09:25;5.40;99.90
9564;DHT22;4820;50.870;4.702;2022-12-07T03:12:18;5.40;99.90
9564;DHT22;4820;50.870;4.702;2022-12-07T03:14:57;5.40;99.90
9564;DHT22;4820;50.870;4.702;2022-12-07T03:17:29;5.40;99.90
9564;DHT22;4820;50.870;4.702;2022-12-07T03:19:58;5.40;99.90
9564;DHT22;4820;50.870;4.702;2022-12-07T03:22:28;5.40;99.90
9564;DHT22;4820;50.870;4.702;2022-12-07T03:24:58;5.40;99.90
9564;DHT22;4820;50.870;4.702;2022-12-07T03:27:31;5.40;99.90
9564;DHT22;4820;50.870;4.702;2022-12-07T03:30:06;5.40;99.90
9564;DHT22;4820;50.870;4.702;2022-12-07T03:32:43;5.50;99.90
9564;DHT22;4820;50.870;4.702;2022-12-07T03:37:49;5.60;99.90
9564;DHT22;4820;50.870;4.702;2022-12-07T03:40:29;5.60;99.90
9564;DHT22;4820;50.870;4.702;2022-12-07T03:42:56;5.50;99.90
9564;DHT22;4820;50.870;4.702;2022-12-07T03:45:39;5.50;99.90
9564;DHT22;4820;50.870;4.702;2022-12-07T03:48:50;5.50;99.90
9564;DHT22;4820;50.870;4.702;2022-12-07T03:51:41;5.50;99.90
9564;DHT22;4820;50.870;4.702;2022-12-07T03:54:19;5.60;99.90
9564;DHT22;4820;50.870;4.702;2022-12-07T03:56:47;5.60;99.90
9564;DHT22;4820;50.870;4.702;2022-12-07T03:59:14;5.60;99.90
9564;DHT22;4820;50.870;4.702;2022-12-07T04:01:45;5.60;99.90
9564;DHT22;4820;50.870;4.702;2022-12-07T04:04:17;5.60;99.90
9564;DHT22;4820;50.870;4.702;2022-12-07T04:06:42;5.50;99.90
9564;DHT22;4820;50.870;4.702;2022-12-07T04:09:09;5.50;99.90
9564;DHT22;4820;50.870;4.702;2022-12-07T04:11:35;5.50;99.90
9564;DHT22;4820;50.870;4.702;2022-12-07T04:14:00;5.40;99.90
9564;DHT22;4820;50.870;4.702;2022-12-07T04:16:53;5.40;99.90
9564;DHT22;4820;50.870;4.702;2022-12-07T04:19:20;5.40;99.90
9564;DHT22;4820;50.870;4.702;2022-12-07T04:21:47;5.40;99.90
9564;DHT22;4820;50.870;4.702;2022-12-07T04:24:14;5.30;99.90
9564;DHT22;4820;50.870;4.702;2022-12-07T04:26:40;5.20;99.90
9564;DHT22;4820;50.870;4.702;2022-12-07T04:29:06;5.20;99.90
9564;DHT22;4820;50.870;4.702;2022-12-07T04:31:32;5.10;99.90
9564;DHT22;4820;50.870;4.702;2022-12-07T04:33:58;5.10;99.90
9564;DHT22;4820;50.870;4.702;2022-12-07T04:36:23;5.10;99.90
9564;DHT22;4820;50.870;4.702;2022-12-07T04:38:49;5.00;99.90
9564;DHT22;4820;50.870;4.702;2022-12-07T04:41:15;5.00;99.90
9564;DHT22;4820;50.870;4.702;2022-12-07T04:43:40;4.90;99.90
9564;DHT22;4820;50.870;4.702;2022-12-07T04:46:06;4.90;99.90
9564;DHT22;4820;50.870;4.702;2022-12-07T04:48:33;5.00;99.90
9564;DHT22;4820;50.870;4.702;2022-12-07T04:50:59;5.00;99.90
9564;DHT22;4820;50.870;4.702;2022-12-07T04:53:24;5.00;99.90
9564;DHT22;4820;50.870;4.702;2022-12-07T04:55:50;5.10;99.90
9564;DHT22;4820;50.870;4.702;2022-12-07T04:58:16;5.20;99.90
9564;DHT22;4820;50.870;4.702;2022-12-07T05:00:41;5.30;99.90
9564;DHT22;4820;50.870;4.702;2022-12-07T05:03:08;5.30;99.90
9564;DHT22;4820;50.870;4.702;2022-12-07T05:05:33;5.30;99.90
9564;DHT22;4820;50.870;4.702;2022-12-07T05:07:59;5.20;99.90
9564;DHT22;4820;50.870;4.702;2022-12-07T05:10:25;5.20;99.90
9564;DHT22;4820;50.870;4.702;2022-12-07T05:12:50;5.10;99.90
9564;DHT22;4820;50.870;4.702;2022-12-07T05:15:16;5.10;99.90
9564;DHT22;4820;50.870;4.702;2022-12-07T05:17:42;5.00;99.90
9564;DHT22;4820;50.870;4.702;2022-12-07T05:20:08;5.00;99.90
9564;DHT22;4820;50.870;4.702;2022-12-07T05:22:34;4.90;99.90
9564;DHT22;4820;50.870;4.702;2022-12-07T05:25:00;4.90;99.90
9564;DHT22;4820;50.870;4.702;2022-12-07T05:27:26;4.90;99.90
9564;DHT22;4820;50.870;4.702;2022-12-07T05:29:54;4.90;99.90
9564;DHT22;4820;50.870;4.702;2022-12-07T05:32:20;5.00;99.90
9564;DHT22;4820;50.870;4.702;2022-12-07T05:34:45;5.10;99.90
9564;DHT22;4820;50.870;4.702;2022-12-07T05:37:11;5.10;99.90
9564;DHT22;4820;50.870;4.702;2022-12-07T05:39:37;5.20;99.90
9564;DHT22;4820;50.870;4.702;2022-12-07T05:42:06;5.20;99.90
9564;DHT22;4820;50.870;4.702;2022-12-07T05:44:45;5.20;99.90
9564;DHT22;4820;50.870;4.702;2022-12-07T05:47:15;5.20;99.90
9564;DHT22;4820;50.870;4.702;2022-12-07T05:49:41;5.20;99.90
9564;DHT22;4820;50.870;4.702;2022-12-07T05:52:08;5.20;99.90
9564;DHT22;4820;50.870;4.702;2022-12-07T05:54:33;5.20;99.90
9564;DHT22;4820;50.870;4.702;2022-12-07T05:56:59;5.20;99.90
9564;DHT22;4820;50.870;4.702;2022-12-07T05:59:25;5.20;99.90
9564;DHT22;4820;50.870;4.702;2022-12-07T06:01:55;5.10;99.90
9564;DHT22;4820;50.870;4.702;2022-12-07T06:04:22;5.10;99.90
9564;DHT22;4820;50.870;4.702;2022-12-07T06:06:49;5.00;99.90
9564;DHT22;4820;50.870;4.702;2022-12-07T06:09:15;5.00;99.90
9564;DHT22;4820;50.870;4.702;2022-12-07T06:11:41;5.00;99.90
9564;DHT22;4820;50.870;4.702;2022-12-07T06:14:26;5.00;99.90
9564;DHT22;4820;50.870;4.702;2022-12-07T06:16:51;5.00;99.90
9564;DHT22;4820;50.870;4.702;2022-12-07T06:19:17;5.00;99.90
9564;DHT22;4820;50.870;4.702;2022-12-07T06:21:43;5.00;99.90
9564;DHT22;4820;50.870;4.702;2022-12-07T06:24:12;5.00;99.90
9564;DHT22;4820;50.870;4.702;2022-12-07T06:26:39;5.00;99.90
9564;DHT22;4820;50.870;4.702;2022-12-07T06:29:05;5.00;99.90
9564;DHT22;4820;50.870;4.702;2022-12-07T06:31:30;5.10;99.90
9564;DHT22;4820;50.870;4.702;2022-12-07T06:34:01;5.10;99.90
9564;DHT22;4820;50.870;4.702;2022-12-07T06:36:27;5.10;99.90
9564;DHT22;4820;50.870;4.702;2022-12-07T06:38:54;5.10;99.90
9564;DHT22;4820;50.870;4.702;2022-12-07T06:41:20;5.10;99.90
9564;DHT22;4820;50.870;4.702;2022-12-07T06:43:46;5.10;99.90
9564;DHT22;4820;50.870;4.702;2022-12-07T06:46:13;5.10;99.90
9564;DHT22;4820;50.870;4.702;2022-12-07T06:48:39;5.10;99.90
9564;DHT22;4820;50.870;4.702;2022-12-07T06:51:06;5.10;99.90
9564;DHT22;4820;50.870;4.702;2022-12-07T06:53:32;5.10;99.90
9564;DHT22;4820;50.870;4.702;2022-12-07T06:55:57;5.10;99.90
9564;DHT22;4820;50.870;4.702;2022-12-07T06:58:24;5.10;99.90
9564;DHT22;4820;50.870;4.702;2022-12-07T07:00:49;5.10;99.90
9564;DHT22;4820;50.870;4.702;2022-12-07T07:03:16;5.10;99.90
9564;DHT22;4820;50.870;4.702;2022-12-07T07:05:42;5.00;99.90
9564;DHT22;4820;50.870;4.702;2022-12-07T07:08:09;5.00;99.90
9564;DHT22;4820;50.870;4.702;2022-12-07T07:10:35;5.10;99.90
9564;DHT22;4820;50.870;4.702;2022-12-07T07:13:01;5.10;99.90
9564;DHT22;4820;50.870;4.702;2022-12-07T07:15:27;5.20;99.90
9564;DHT22;4820;50.870;4.702;2022-12-07T07:17:52;5.20;99.90
9564;DHT22;4820;50.870;4.702;2022-12-07T07:20:18;5.30;99.90
9564;DHT22;4820;50.870;4.702;2022-12-07T07:22:44;5.30;99.90
9564;DHT22;4820;50.870;4.702;2022-12-07T07:25:10;5.40;99.90
9564;DHT22;4820;50.870;4.702;2022-12-07T07:27:35;5.40;99.90
9564;DHT22;4820;50.870;4.702;2022-12-07T07:30:01;5.30;99.90
9564;DHT22;4820;50.870;4.702;2022-12-07T07:32:26;5.40;99.90
9564;DHT22;4820;50.870;4.702;2022-12-07T07:34:53;5.50;99.90
9564;DHT22;4820;50.870;4.702;2022-12-07T07:37:19;5.50;99.90
9564;DHT22;4820;50.870;4.702;2022-12-07T07:39:45;5.50;99.90
9564;DHT22;4820;50.870;4.702;2022-12-07T07:42:11;5.40;99.90
9564;DHT22;4820;50.870;4.702;2022-12-07T07:44:36;5.40;99.90
9564;DHT22;4820;50.870;4.702;2022-12-07T07:47:02;5.30;99.90
9564;DHT22;4820;50.870;4.702;2022-12-07T07:49:28;5.30;99.90
9564;DHT22;4820;50.870;4.702;2022-12-07T07:51:55;5.20;99.90
9564;DHT22;4820;50.870;4.702;2022-12-07T07:54:20;5.20;99.90
9564;DHT22;4820;50.870;4.702;2022-12-07T07:56:46;5.20;99.90
9564;DHT22;4820;50.870;4.702;2022-12-07T07:59:12;5.20;99.90
9564;DHT22;4820;50.870;4.702;2022-12-07T08:01:37;5.30;99.90
9564;DHT22;4820;50.870;4.702;2022-12-07T08:04:03;5.30;99.90
9564;DHT22;4820;50.870;4.702;2022-12-07T08:06:29;5.30;99.90
9564;DHT22;4820;50.870;4.702;2022-12-07T08:08:54;5.20;99.90
9564;DHT22;4820;50.870;4.702;2022-12-07T08:11:20;5.20;99.90
9564;DHT22;4820;50.870;4.702;2022-12-07T08:13:46;5.30;99.90
9564;DHT22;4820;50.870;4.702;2022-12-07T08:16:13;5.30;99.90
9564;DHT22;4820;50.870;4.702;2022-12-07T08:18:40;5.30;99.90
9564;DHT22;4820;50.870;4.702;2022-12-07T08:21:07;5.20;99.90
9564;DHT22;4820;50.870;4.702;2022-12-07T08:23:34;5.20;99.90
9564;DHT22;4820;50.870;4.702;2022-12-07T08:26:02;5.20;99.90
9564;DHT22;4820;50.870;4.702;2022-12-07T08:28:29;5.10;99.90
9564;DHT22;4820;50.870;4.702;2022-12-07T08:31:02;5.10;99.90
9564;DHT22;4820;50.870;4.702;2022-12-07T08:33:28;5.10;99.90
9564;DHT22;4820;50.870;4.702;2022-12-07T08:35:53;5.00;99.90
9564;DHT22;4820;50.870;4.702;2022-12-07T08:38:19;5.00;99.90
9564;DHT22;4820;50.870;4.702;2022-12-07T08:40:52;5.00;99.90
9564;DHT22;4820;50.870;4.702;2022-12-07T08:43:18;5.00;99.90
9564;DHT22;4820;50.870;4.702;2022-12-07T08:45:44;5.00;99.90
9564;DHT22;4820;50.870;4.702;2022-12-07T08:48:12;5.00;99.90
9564;DHT22;4820;50.870;4.702;2022-12-07T08:50:38;5.00;99.90
9564;DHT22;4820;50.870;4.702;2022-12-07T08:53:05;5.10;99.90
9564;DHT22;4820;50.870;4.702;2022-12-07T08:55:33;5.10;99.90
9564;DHT22;4820;50.870;4.702;2022-12-07T08:57:59;5.20;99.90
9564;DHT22;4820;50.870;4.702;2022-12-07T09:00:26;5.30;99.90
9564;DHT22;4820;50.870;4.702;2022-12-07T09:02:53;5.40;99.90
9564;DHT22;4820;50.870;4.702;2022-12-07T09:05:19;5.50;99.90
9564;DHT22;4820;50.870;4.702;2022-12-07T09:07:47;5.60;99.90
9564;DHT22;4820;50.870;4.702;2022-12-07T09:10:15;5.70;99.90
9564;DHT22;4820;50.870;4.702;2022-12-07T09:12:40;5.70;99.90
9564;DHT22;4820;50.870;4.702;2022-12-07T09:15:07;5.70;99.90
9564;DHT22;4820;50.870;4.702;2022-12-07T09:17:35;5.70;99.90
9564;DHT22;4820;50.870;4.702;2022-12-07T09:20:02;5.70;99.90
9564;DHT22;4820;50.870;4.702;2022-12-07T09:22:29;5.70;99.90
9564;DHT22;4820;50.870;4.702;2022-12-07T09:24:57;5.80;99.90
9564;DHT22;4820;50.870;4.702;2022-12-07T09:27:23;5.80;99.90
9564;DHT22;4820;50.870;4.702;2022-12-07T09:29:48;5.90;99.90
9564;DHT22;4820;50.870;4.702;2022-12-07T09:32:14;5.90;99.90
9564;DHT22;4820;50.870;4.702;2022-12-07T09:34:39;5.90;99.90
9564;DHT22;4820;50.870;4.702;2022-12-07T09:37:05;6.00;99.90
9564;DHT22;4820;50.870;4.702;2022-12-07T09:39:32;6.20;99.90
9564;DHT22;4820;50.870;4.702;2022-12-07T09:41:58;6.30;99.90
9564;DHT22;4820;50.870;4.702;2022-12-07T09:44:26;6.50;99.90
9564;DHT22;4820;50.870;4.702;2022-12-07T09:46:52;6.60;99.90
9564;DHT22;4820;50.870;4.702;2022-12-07T09:49:21;6.80;99.90
9564;DHT22;4820;50.870;4.702;2022-12-07T09:51:58;7.00;99.90
9564;DHT22;4820;50.870;4.702;2022-12-07T09:54:24;7.10;99.90
9564;DHT22;4820;50.870;4.702;2022-12-07T09:56:50;7.30;99.90
9564;DHT22;4820;50.870;4.702;2022-12-07T09:59:19;7.40;99.90
9564;DHT22;4820;50.870;4.702;2022-12-07T10:01:49;7.40;99.90
9564;DHT22;4820;50.870;4.702;2022-12-07T10:04:24;7.40;99.90
9564;DHT22;4820;50.870;4.702;2022-12-07T10:06:51;7.20;99.90
9564;DHT22;4820;50.870;4.702;2022-12-07T10:09:19;7.20;99.90
9564;DHT22;4820;50.870;4.702;2022-12-07T10:14:27;7.00;99.90
9564;DHT22;4820;50.870;4.702;2022-12-07T10:16:52;6.90;99.90
9564;DHT22;4820;50.870;4.702;2022-12-07T10:19:32;6.90;99.90
9564;DHT22;4820;50.870;4.702;2022-12-07T10:24:29;6.80;99.90
9564;DHT22;4820;50.870;4.702;2022-12-07T10:26:56;6.80;99.90
9564;DHT22;4820;50.870;4.702;2022-12-07T10:29:36;6.70;99.90
9564;DHT22;4820;50.870;4.702;2022-12-07T10:34:41;6.80;99.90
9564;DHT22;4820;50.870;4.702;2022-12-07T10:37:14;6.80;99.90
9564;DHT22;4820;50.870;4.702;2022-12-07T10:39:54;6.80;99.90
9564;DHT22;4820;50.870;4.702;2022-12-07T10:42:28;6.90;99.90
9564;DHT22;4820;50.870;4.702;2022-12-07T10:50:56;7.10;99.90
9564;DHT22;4820;50.870;4.702;2022-12-07T10:53:41;7.10;99.90
9564;DHT22;4820;50.870;4.702;2022-12-07T10:56:42;7.30;99.90
9564;DHT22;4820;50.870;4.702;2022-12-07T11:08:37;7.50;99.90
9564;DHT22;4820;50.870;4.702;2022-12-07T11:11:20;7.50;99.90
9564;DHT22;4820;50.870;4.702;2022-12-07T11:16:59;7.50;99.90
9564;DHT22;4820;50.870;4.702;2022-12-07T11:33:51;7.60;99.90
9564;DHT22;4820;50.870;4.702;2022-12-07T11:39:00;7.60;99.90
9564;DHT22;4820;50.870;4.702;2022-12-07T11:41:34;7.60;99.90
9564;DHT22;4820;50.870;4.702;2022-12-07T11:47:02;7.70;99.90
9564;DHT22;4820;50.870;4.702;2022-12-07T11:49:54;7.70;99.90
9564;DHT22;4820;50.870;4.702;2022-12-07T11:52:52;7.50;99.90
9564;DHT22;4820;50.870;4.702;2022-12-07T12:00:42;7.20;99.90
9564;DHT22;4820;50.870;4.702;2022-12-07T12:03:15;7.30;99.90
9564;DHT22;4820;50.870;4.702;2022-12-07T12:05:42;7.30;99.90
9564;DHT22;4820;50.870;4.702;2022-12-07T12:08:33;7.40;99.90
9564;DHT22;4820;50.870;4.702;2022-12-07T12:14:19;7.70;99.90
9564;DHT22;4820;50.870;4.702;2022-12-07T12:23:14;8.00;99.90
9564;DHT22;4820;50.870;4.702;2022-12-07T12:28:49;7.90;99.90
9564;DHT22;4820;50.870;4.702;2022-12-07T12:33:53;7.80;99.90
9564;DHT22;4820;50.870;4.702;2022-12-07T12:47:00;7.90;99.90
9564;DHT22;4820;50.870;4.702;2022-12-07T12:49:43;7.90;99.90
9564;DHT22;4820;50.870;4.702;2022-12-07T12:54:59;7.60;99.90
9564;DHT22;4820;50.870;4.702;2022-12-07T12:57:31;7.60;99.90
9564;DHT22;4820;50.870;4.702;2022-12-07T12:59:58;7.60;99.90
9564;DHT22;4820;50.870;4.702;2022-12-07T13:02:35;7.60;99.90
9564;DHT22;4820;50.870;4.702;2022-12-07T13:10:47;7.50;99.90
9564;DHT22;4820;50.870;4.702;2022-12-07T13:15:54;7.60;99.90
9564;DHT22;4820;50.870;4.702;2022-12-07T13:18:37;7.60;99.90
9564;DHT22;4820;50.870;4.702;2022-12-07T13:28:38;7.90;99.90
9564;DHT22;4820;50.870;4.702;2022-12-07T13:33:49;8.00;99.90
9564;DHT22;4820;50.870;4.702;2022-12-07T13:36:23;8.20;99.90
9564;DHT22;4820;50.870;4.702;2022-12-07T13:38:55;8.30;99.90
9564;DHT22;4820;50.870;4.702;2022-12-07T13:41:23;8.30;99.90
9564;DHT22;4820;50.870;4.702;2022-12-07T13:46:20;8.30;99.90
9564;DHT22;4820;50.870;4.702;2022-12-07T13:48:48;8.30;99.90
9564;DHT22;4820;50.870;4.702;2022-12-07T13:51:35;8.20;99.90
9564;DHT22;4820;50.870;4.702;2022-12-07T13:54:10;8.10;99.90
9564;DHT22;4820;50.870;4.702;2022-12-07T13:56:36;8.10;99.90
9564;DHT22;4820;50.870;4.702;2022-12-07T13:59:03;8.00;99.90
9564;DHT22;4820;50.870;4.702;2022-12-07T14:01:31;8.00;99.90
9564;DHT22;4820;50.870;4.702;2022-12-07T14:04:26;8.00;99.90
9564;DHT22;4820;50.870;4.702;2022-12-07T14:06:54;8.00;99.90
9564;DHT22;4820;50.870;4.702;2022-12-07T14:09:22;8.00;99.90
9564;DHT22;4820;50.870;4.702;2022-12-07T14:11:50;8.00;99.90
9564;DHT22;4820;50.870;4.702;2022-12-07T14:14:25;8.00;99.90
9564;DHT22;4820;50.870;4.702;2022-12-07T14:17:11;8.00;99.90
9564;DHT22;4820;50.870;4.702;2022-12-07T14:19:55;8.00;99.90
9564;DHT22;4820;50.870;4.702;2022-12-07T14:25:13;8.00;99.90
9564;DHT22;4820;50.870;4.702;2022-12-07T14:27:48;7.90;99.90
9564;DHT22;4820;50.870;4.702;2022-12-07T14:30:16;7.90;99.90
9564;DHT22;4820;50.870;4.702;2022-12-07T14:32:43;7.90;99.90
9564;DHT22;4820;50.870;4.702;2022-12-07T14:35:16;7.80;99.90
9564;DHT22;4820;50.870;4.702;2022-12-07T14:37:44;7.80;99.90
9564;DHT22;4820;50.870;4.702;2022-12-07T14:40:17;7.80;99.90
9564;DHT22;4820;50.870;4.702;2022-12-07T14:42:44;7.80;99.90
9564;DHT22;4820;50.870;4.702;2022-12-07T14:45:18;7.70;99.90
9564;DHT22;4820;50.870;4.702;2022-12-07T14:47:44;7.70;99.90
9564;DHT22;4820;50.870;4.702;2022-12-07T14:50:16;7.50;99.90
9564;DHT22;4820;50.870;4.702;2022-12-07T14:52:49;7.50;99.90
9564;DHT22;4820;50.870;4.702;2022-12-07T14:55:33;7.40;99.90
9564;DHT22;4820;50.870;4.702;2022-12-07T14:58:00;7.30;99.90
9564;DHT22;4820;50.870;4.702;2022-12-07T15:00:27;7.30;99.90
9564;DHT22;4820;50.870;4.702;2022-12-07T15:02:53;7.30;99.90
9564;DHT22;4820;50.870;4.702;2022-12-07T15:05:19;7.30;99.90
9564;DHT22;4820;50.870;4.702;2022-12-07T15:07:46;7.30;99.90
9564;DHT22;4820;50.870;4.702;2022-12-07T15:12:40;7.30;99.90
9564;DHT22;4820;50.870;4.702;2022-12-07T15:15:06;7.20;99.90
9564;DHT22;4820;50.870;4.702;2022-12-07T15:17:32;7.20;99.90
9564;DHT22;4820;50.870;4.702;2022-12-07T15:19:58;7.10;99.90
9564;DHT22;4820;50.870;4.702;2022-12-07T15:22:23;7.00;99.90
9564;DHT22;4820;50.870;4.702;2022-12-07T15:24:50;7.00;99.90
9564;DHT22;4820;50.870;4.702;2022-12-07T15:27:16;6.90;99.90
9564;DHT22;4820;50.870;4.702;2022-12-07T15:29:41;6.80;99.90
9564;DHT22;4820;50.870;4.702;2022-12-07T15:32:07;6.70;99.90
9564;DHT22;4820;50.870;4.702;2022-12-07T15:34:32;6.60;99.90
9564;DHT22;4820;50.870;4.702;2022-12-07T15:36:58;6.60;99.90
9564;DHT22;4820;50.870;4.702;2022-12-07T15:39:24;6.60;99.90
9564;DHT22;4820;50.870;4.702;2022-12-07T15:41:49;6.60;99.90
9564;DHT22;4820;50.870;4.702;2022-12-07T15:44:15;6.50;99.90
9564;DHT22;4820;50.870;4.702;2022-12-07T15:46:59;6.50;99.90
9564;DHT22;4820;50.870;4.702;2022-12-07T15:49:26;6.50;99.90
9564;DHT22;4820;50.870;4.702;2022-12-07T15:51:52;6.50;99.90
9564;DHT22;4820;50.870;4.702;2022-12-07T15:54:21;6.50;99.90
9564;DHT22;4820;50.870;4.702;2022-12-07T15:56:47;6.50;99.90
9564;DHT22;4820;50.870;4.702;2022-12-07T15:59:13;6.50;99.90
9564;DHT22;4820;50.870;4.702;2022-12-07T16:01:39;6.50;99.90
9564;DHT22;4820;50.870;4.702;2022-12-07T16:04:05;6.50;99.90
9564;DHT22;4820;50.870;4.702;2022-12-07T16:06:30;6.50;99.90
9564;DHT22;4820;50.870;4.702;2022-12-07T16:08:56;6.50;99.90
9564;DHT22;4820;50.870;4.702;2022-12-07T16:11:22;6.60;99.90
9564;DHT22;4820;50.870;4.702;2022-12-07T16:13:47;6.60;99.90
9564;DHT22;4820;50.870;4.702;2022-12-07T16:16:15;6.60;99.90
9564;DHT22;4820;50.870;4.702;2022-12-07T16:18:46;6.70;99.90
9564;DHT22;4820;50.870;4.702;2022-12-07T16:21:13;6.70;99.90
9564;DHT22;4820;50.870;4.702;2022-12-07T16:23:39;6.70;99.90
9564;DHT22;4820;50.870;4.702;2022-12-07T16:26:11;6.70;99.90
9564;DHT22;4820;50.870;4.702;2022-12-07T16:28:37;6.70;99.90
9564;DHT22;4820;50.870;4.702;2022-12-07T16:31:08;6.70;99.90
9564;DHT22;4820;50.870;4.702;2022-12-07T16:33:35;6.70;99.90
9564;DHT22;4820;50.870;4.702;2022-12-07T16:36:02;6.70;99.90
9564;DHT22;4820;50.870;4.702;2022-12-07T16:38:28;6.80;99.90
9564;DHT22;4820;50.870;4.702;2022-12-07T16:40:53;6.80;99.90
9564;DHT22;4820;50.870;4.702;2022-12-07T16:43:19;6.80;99.90
9564;DHT22;4820;50.870;4.702;2022-12-07T16:45:46;6.80;99.90
9564;DHT22;4820;50.870;4.702;2022-12-07T16:48:13;6.70;99.90
9564;DHT22;4820;50.870;4.702;2022-12-07T16:50:40;6.70;99.90
9564;DHT22;4820;50.870;4.702;2022-12-07T16:53:10;6.70;99.90
9564;DHT22;4820;50.870;4.702;2022-12-07T16:55:42;6.70;99.90
9564;DHT22;4820;50.870;4.702;2022-12-07T16:58:08;6.70;99.90
9564;DHT22;4820;50.870;4.702;2022-12-07T17:00:34;6.70;99.90
9564;DHT22;4820;50.870;4.702;2022-12-07T17:03:00;6.70;99.90
9564;DHT22;4820;50.870;4.702;2022-12-07T17:05:26;6.80;99.90
9564;DHT22;4820;50.870;4.702;2022-12-07T17:07:53;6.80;99.90
9564;DHT22;4820;50.870;4.702;2022-12-07T17:10:19;6.70;99.90
9564;DHT22;4820;50.870;4.702;2022-12-07T17:12:45;6.70;99.90
9564;DHT22;4820;50.870;4.702;2022-12-07T17:15:11;6.70;99.90
9564;DHT22;4820;50.870;4.702;2022-12-07T17:17:45;6.70;99.90
9564;DHT22;4820;50.870;4.702;2022-12-07T17:20:10;6.70;99.90
9564;DHT22;4820;50.870;4.702;2022-12-07T17:22:36;6.70;99.90
9564;DHT22;4820;50.870;4.702;2022-12-07T17:25:04;6.70;99.90
9564;DHT22;4820;50.870;4.702;2022-12-07T17:27:30;6.70;99.90
9564;DHT22;4820;50.870;4.702;2022-12-07T17:29:56;6.70;99.90
9564;DHT22;4820;50.870;4.702;2022-12-07T17:32:22;6.70;99.90
9564;DHT22;4820;50.870;4.702;2022-12-07T17:34:48;6.70;99.90
9564;DHT22;4820;50.870;4.702;2022-12-07T17:37:13;6.60;99.90
9564;DHT22;4820;50.870;4.702;2022-12-07T17:39:39;6.70;99.90
9564;DHT22;4820;50.870;4.702;2022-12-07T17:42:05;6.70;99.90
9564;DHT22;4820;50.870;4.702;2022-12-07T17:44:49;6.70;99.90
9564;DHT22;4820;50.870;4.702;2022-12-07T17:47:14;6.70;99.90
9564;DHT22;4820;50.870;4.702;2022-12-07T17:49:43;6.70;99.90
9564;DHT22;4820;50.870;4.702;2022-12-07T17:52:11;6.70;99.90
9564;DHT22;4820;50.870;4.702;2022-12-07T17:54:55;6.70;99.90
9564;DHT22;4820;50.870;4.702;2022-12-07T17:57:22;6.70;99.90
9564;DHT22;4820;50.870;4.702;2022-12-07T17:59:48;6.60;99.90
9564;DHT22;4820;50.870;4.702;2022-12-07T18:02:14;6.60;99.90
9564;DHT22;4820;50.870;4.702;2022-12-07T18:04:39;6.50;99.90
9564;DHT22;4820;50.870;4.702;2022-12-07T18:07:07;6.50;99.90
9564;DHT22;4820;50.870;4.702;2022-12-07T18:09:34;6.40;99.90
9564;DHT22;4820;50.870;4.702;2022-12-07T18:11:59;6.40;99.90
9564;DHT22;4820;50.870;4.702;2022-12-07T18:14:25;6.40;99.90
9564;DHT22;4820;50.870;4.702;2022-12-07T18:16:51;6.40;99.90
9564;DHT22;4820;50.870;4.702;2022-12-07T18:19:17;6.40;99.90
9564;DHT22;4820;50.870;4.702;2022-12-07T18:21:43;6.40;99.90
9564;DHT22;4820;50.870;4.702;2022-12-07T18:24:11;6.40;99.90
9564;DHT22;4820;50.870;4.702;2022-12-07T18:26:37;6.50;99.90
9564;DHT22;4820;50.870;4.702;2022-12-07T18:29:04;6.50;99.90
9564;DHT22;4820;50.870;4.702;2022-12-07T18:31:31;6.50;99.90
9564;DHT22;4820;50.870;4.702;2022-12-07T18:34:02;6.50;99.90
9564;DHT22;4820;50.870;4.702;2022-12-07T18:36:29;6.60;99.90
9564;DHT22;4820;50.870;4.702;2022-12-07T18:38:55;6.50;99.90
9564;DHT22;4820;50.870;4.702;2022-12-07T18:41:21;6.60;99.90